58CL weather

Borrego Air Ranch Airport
Borrego Springs, California, United States

Public forecast

Using degrees Fahrenheit for public forecast. Weather courtesy of forecast.io.

Closest aviation weather report (METAR) to Borrego Air Ranch Airport

Closest report is Jacqueline Cochran Regional Airport, 26.8 nm (49.6 km) NNE. Retrieved 2019/12/12 20:52 UTC (22 minutes ago):

KTRM 122052Z AUTO 12003KT 10SM CLR 21/06 A3018 RMK AO2 SLP219 T02110056 58023

Closest aviation forecast (TAF) to Borrego Air Ranch Airport

Closest forecast is Jacqueline Cochran Regional Airport, 26.8 nm (49.6 km) NNE. Retrieved 2019/12/12 18:27 UTC (3 hours ago):

TAF KTRM 121724Z 1218/1318 VRB04KT P6SM BKN250